createdAt,value
2022-08-19T00:01:28.814Z,23.13
2022-08-19T00:04:02.009Z,23.12
2022-08-19T00:06:29.386Z,23.12
2022-08-19T00:08:56.815Z,23.11
2022-08-19T00:11:26.022Z,23.09
2022-08-19T00:13:53.925Z,23.06
2022-08-19T00:16:26.247Z,23.05
2022-08-19T00:18:56.449Z,23.03
2022-08-19T00:21:27.738Z,23.05
2022-08-19T00:23:55.528Z,23.07
2022-08-19T00:26:22.456Z,23.05
2022-08-19T00:28:49.406Z,23.03
2022-08-19T00:31:16.771Z,23.01
2022-08-19T00:33:44.232Z,22.99
2022-08-19T00:36:11.385Z,22.98
2022-08-19T00:38:40.411Z,22.97
2022-08-19T00:41:07.536Z,22.95
2022-08-19T00:43:34.483Z,22.93
2022-08-19T00:46:04.018Z,22.93
2022-08-19T00:48:30.939Z,22.93
2022-08-19T00:50:57.885Z,22.93
2022-08-19T00:53:27.602Z,22.93
2022-08-19T00:55:56.085Z,22.92
2022-08-19T00:58:25.392Z,22.92
2022-08-19T01:00:52.331Z,22.93
2022-08-19T01:03:20.448Z,22.94
2022-08-19T01:05:47.456Z,22.92
2022-08-19T01:08:15.234Z,22.90
2022-08-19T01:10:48.622Z,22.87
2022-08-19T01:13:16.485Z,22.87
2022-08-19T01:15:50.284Z,22.87
2022-08-19T01:18:17.961Z,22.85
2022-08-19T01:20:45.526Z,22.84
2022-08-19T01:23:12.606Z,22.82
2022-08-19T01:25:51.216Z,22.80
2022-08-19T01:28:37.178Z,22.78
2022-08-19T01:31:09.538Z,22.75
2022-08-19T01:33:36.525Z,22.73
2022-08-19T01:36:12.412Z,22.72
2022-08-19T01:38:44.371Z,22.68
2022-08-19T01:41:12.636Z,22.72
2022-08-19T01:44:13.585Z,22.74
2022-08-19T01:46:26.583Z,22.75
2022-08-19T01:48:53.546Z,22.75
2022-08-19T01:51:20.489Z,22.73
2022-08-19T01:53:51.435Z,22.73
2022-08-19T01:56:19.310Z,22.71
2022-08-19T01:58:50.456Z,22.70
2022-08-19T02:01:17.826Z,22.69
2022-08-19T02:03:44.771Z,22.66
2022-08-19T02:06:11.715Z,22.65
2022-08-19T02:08:39.098Z,22.65
2022-08-19T02:11:06.641Z,22.66
2022-08-19T02:13:33.822Z,22.67
2022-08-19T02:16:00.844Z,22.66
2022-08-19T02:18:31.377Z,22.65
2022-08-19T02:20:58.349Z,22.64
2022-08-19T02:23:25.342Z,22.63
2022-08-19T02:25:52.935Z,22.59
2022-08-19T02:28:19.982Z,22.53
2022-08-19T02:30:47.146Z,22.51
2022-08-19T02:33:14.085Z,22.47
2022-08-19T02:35:45.264Z,22.42
2022-08-19T02:38:27.437Z,22.38
2022-08-19T02:40:56.871Z,22.30
2022-08-19T02:43:24.195Z,22.14
2022-08-19T02:45:52.587Z,22.10
2022-08-19T02:48:21.567Z,22.09
2022-08-19T02:50:53.327Z,22.09
2022-08-19T02:53:20.782Z,22.11
2022-08-19T02:55:48.179Z,22.12
2022-08-19T02:58:15.526Z,22.15
2022-08-19T03:00:47.257Z,22.17
2022-08-19T03:03:14.818Z,22.21
2022-08-19T03:05:56.176Z,22.20
2022-08-19T03:08:25.491Z,22.21
2022-08-19T03:10:54.043Z,22.26
2022-08-19T03:13:21.163Z,22.22
2022-08-19T03:15:48.622Z,22.24
2022-08-19T03:18:16.087Z,22.25
2022-08-19T03:20:49.081Z,22.25
2022-08-19T03:23:16.960Z,22.25
2022-08-19T03:25:45.991Z,22.25
2022-08-19T03:28:13.627Z,22.26
2022-08-19T03:30:41.998Z,22.28
2022-08-19T03:33:11.422Z,22.30
2022-08-19T03:35:46.260Z,22.31
2022-08-19T03:38:13.211Z,22.31
2022-08-19T03:40:40.162Z,22.33
2022-08-19T03:43:07.153Z,22.37
2022-08-19T03:45:34.164Z,22.38
2022-08-19T03:48:01.609Z,22.43
2022-08-19T03:50:28.587Z,22.46
2022-08-19T03:52:55.534Z,22.50
2022-08-19T03:55:22.482Z,22.60
2022-08-19T03:57:49.749Z,22.64
2022-08-19T04:00:17.721Z,22.68
2022-08-19T04:02:58.608Z,22.72
2022-08-19T04:05:29.710Z,22.76
2022-08-19T04:08:00.283Z,22.81
2022-08-19T04:10:29.406Z,22.88
2022-08-19T04:12:56.329Z,22.94
2022-08-19T04:15:23.388Z,23.03
2022-08-19T04:17:50.272Z,23.08
2022-08-19T04:20:17.212Z,23.16
2022-08-19T04:22:44.232Z,23.24
2022-08-19T04:25:11.694Z,23.28
2022-08-19T04:27:38.744Z,23.34
2022-08-19T04:30:06.409Z,23.45
2022-08-19T04:32:33.356Z,23.53
2022-08-19T04:35:03.156Z,23.60
2022-08-19T04:37:44.869Z,23.66
2022-08-19T04:40:30.967Z,23.71
2022-08-19T04:42:57.817Z,23.80
2022-08-19T04:45:24.767Z,23.88
2022-08-19T04:47:58.365Z,23.92
2022-08-19T04:50:29.323Z,23.99
2022-08-19T04:52:56.893Z,24.04
2022-08-19T04:55:26.835Z,24.20
2022-08-19T04:57:54.980Z,24.28
2022-08-19T05:00:22.332Z,24.35
2022-08-19T05:02:50.388Z,24.37
2022-08-19T05:05:18.370Z,24.36
2022-08-19T05:07:45.455Z,24.40
2022-08-19T05:10:12.872Z,24.45
2022-08-19T05:12:40.862Z,24.50
2022-08-19T05:15:09.882Z,24.57
2022-08-19T05:17:38.895Z,24.63
2022-08-19T05:20:26.153Z,24.71
2022-08-19T05:22:53.823Z,24.79
2022-08-19T05:25:21.993Z,24.87
2022-08-19T05:27:49.914Z,24.93
2022-08-19T05:30:17.433Z,25.10
2022-08-19T05:32:44.771Z,25.12
2022-08-19T05:35:12.904Z,25.13
2022-08-19T05:37:41.661Z,25.18
2022-08-19T05:40:10.447Z,25.25
2022-08-19T05:42:38.601Z,25.32
2022-08-19T05:45:06.872Z,25.43
2022-08-19T05:47:33.921Z,25.53
2022-08-19T05:50:04.928Z,25.60
2022-08-19T05:52:32.562Z,25.69
2022-08-19T05:55:00.601Z,25.80
2022-08-19T05:57:30.185Z,25.94
2022-08-19T05:59:59.192Z,26.05
2022-08-19T06:02:27.720Z,26.18
2022-08-19T06:04:54.946Z,26.35
2022-08-19T06:07:22.165Z,26.49
2022-08-19T06:10:00.527Z,26.63
2022-08-19T06:12:29.990Z,26.75
2022-08-19T06:15:01.517Z,26.87
2022-08-19T06:17:31.504Z,27.02
2022-08-19T06:19:59.594Z,27.17
2022-08-19T06:22:28.587Z,27.25
2022-08-19T06:24:57.394Z,27.39
2022-08-19T06:27:24.599Z,27.60
2022-08-19T06:29:51.545Z,27.87
2022-08-19T06:32:19.883Z,28.10
2022-08-19T06:34:47.731Z,28.25
2022-08-19T06:37:14.666Z,28.42
2022-08-19T06:39:42.871Z,28.63
2022-08-19T06:42:12.870Z,28.87
2022-08-19T06:44:43.092Z,29.04
2022-08-19T06:47:14.606Z,29.15
2022-08-19T06:49:43.290Z,29.33
2022-08-19T06:52:14.223Z,29.49
2022-08-19T06:54:52.602Z,29.66
2022-08-19T06:57:24.720Z,29.85
2022-08-19T06:59:52.432Z,30.03
2022-08-19T07:02:20.274Z,30.15
2022-08-19T07:04:47.406Z,30.26
2022-08-19T07:07:21.056Z,30.42
2022-08-19T07:09:51.641Z,30.65
2022-08-19T07:12:28.167Z,30.86
2022-08-19T07:14:57.131Z,31.07
2022-08-19T07:17:24.536Z,31.24
2022-08-19T07:19:54.427Z,31.35
2022-08-19T07:22:24.383Z,31.44
2022-08-19T07:24:53.752Z,31.61
2022-08-19T07:27:24.714Z,31.71
2022-08-19T07:29:57.270Z,31.85
2022-08-19T07:32:28.016Z,32.15
2022-08-19T07:34:56.443Z,32.39
2022-08-19T07:37:33.188Z,32.51
2022-08-19T07:40:02.199Z,32.67
2022-08-19T07:42:31.038Z,32.81
2022-08-19T07:44:58.905Z,32.98
2022-08-19T07:47:47.766Z,33.14
2022-08-19T07:50:13.578Z,33.46
2022-08-19T07:52:41.345Z,33.64
2022-08-19T07:55:13.602Z,33.89
2022-08-19T07:57:56.641Z,34.01
2022-08-19T08:00:24.735Z,34.00
2022-08-19T08:02:55.260Z,34.09
2022-08-19T08:05:45.600Z,34.25
2022-08-19T08:08:44.276Z,34.37
2022-08-19T08:11:17.597Z,34.54
2022-08-19T08:13:47.318Z,34.68
2022-08-19T08:16:31.267Z,34.67
2022-08-19T08:18:59.133Z,34.65
2022-08-19T08:21:26.211Z,34.54
2022-08-19T08:23:56.696Z,34.54
2022-08-19T08:26:24.385Z,34.64
2022-08-19T08:28:52.254Z,34.74
2022-08-19T08:31:20.331Z,34.85
2022-08-19T08:33:47.553Z,34.89
2022-08-19T08:36:16.275Z,34.85
2022-08-19T08:38:46.816Z,34.97
2022-08-19T08:41:27.282Z,35.21
2022-08-19T08:43:54.951Z,35.39
2022-08-19T08:46:30.540Z,35.40
2022-08-19T08:49:08.394Z,35.45
2022-08-19T08:54:14.126Z,35.72
2022-08-19T08:56:42.497Z,35.92
2022-08-19T08:59:21.089Z,36.11
2022-08-19T09:01:48.396Z,36.38
2022-08-19T09:04:15.509Z,36.70
2022-08-19T09:06:57.494Z,36.96
2022-08-19T09:09:44.724Z,37.12
2022-08-19T09:12:27.467Z,37.23
2022-08-19T09:14:59.820Z,37.33
2022-08-19T09:17:36.328Z,37.52
2022-08-19T09:20:11.647Z,37.66
2022-08-19T09:22:39.108Z,37.74
2022-08-19T09:25:07.271Z,37.81
2022-08-19T09:27:42.569Z,37.86
2022-08-19T09:30:22.745Z,38.04
2022-08-19T09:32:53.030Z,38.23
2022-08-19T09:35:24.424Z,38.37
2022-08-19T09:37:57.379Z,38.60
2022-08-19T09:40:26.986Z,38.72
2022-08-19T09:42:58.401Z,38.82
2022-08-19T09:45:25.445Z,39.01
2022-08-19T09:47:54.817Z,39.09
2022-08-19T09:50:22.509Z,39.17
2022-08-19T09:52:55.762Z,39.26
2022-08-19T09:55:24.907Z,39.08
2022-08-19T09:58:03.253Z,39.00
2022-08-19T10:00:32.005Z,39.10
2022-08-19T10:02:59.002Z,39.31
2022-08-19T10:05:44.435Z,39.42
2022-08-19T10:08:13.588Z,39.52
2022-08-19T10:10:46.503Z,39.59
2022-08-19T10:13:15.523Z,39.63
2022-08-19T10:15:47.402Z,39.84
2022-08-19T10:18:19.314Z,39.98
2022-08-19T10:20:52.702Z,40.10
2022-08-19T10:23:21.326Z,40.27
2022-08-19T10:25:49.164Z,40.35
2022-08-19T10:28:16.305Z,40.47
2022-08-19T10:30:47.771Z,40.51
2022-08-19T10:33:38.427Z,40.58
2022-08-19T10:36:05.845Z,40.73
2022-08-19T10:38:33.157Z,40.76
2022-08-19T10:41:08.415Z,40.72
2022-08-19T10:43:39.444Z,40.76
2022-08-19T10:46:14.205Z,40.82
2022-08-19T10:48:43.990Z,40.89
2022-08-19T10:51:30.386Z,40.98
2022-08-19T10:53:58.347Z,41.14
2022-08-19T10:56:44.748Z,41.11
2022-08-19T10:59:13.232Z,41.03
2022-08-19T11:01:40.331Z,41.09
2022-08-19T11:04:11.078Z,41.20
2022-08-19T11:06:39.554Z,41.28
2022-08-19T11:09:07.147Z,41.35
2022-08-19T11:11:34.405Z,41.36
2022-08-19T11:14:10.759Z,41.25
2022-08-19T11:16:39.379Z,41.23
2022-08-19T11:19:08.302Z,41.21
2022-08-19T11:21:37.884Z,41.12
2022-08-19T11:24:08.692Z,41.05
2022-08-19T11:26:37.184Z,41.12
2022-08-19T11:29:04.406Z,41.33
2022-08-19T11:31:32.991Z,41.54
2022-08-19T11:34:01.175Z,41.69
2022-08-19T11:36:28.631Z,41.65
2022-08-19T11:38:55.577Z,41.45
2022-08-19T11:41:24.437Z,41.48
2022-08-19T11:43:55.209Z,41.60
2022-08-19T11:46:23.807Z,41.67
2022-08-19T11:48:51.906Z,41.85
2022-08-19T11:51:23.018Z,42.01
2022-08-19T11:53:51.463Z,42.06
2022-08-19T11:56:18.852Z,42.10
2022-08-19T11:58:46.138Z,42.09
2022-08-19T12:01:14.755Z,41.88
2022-08-19T12:03:41.883Z,41.68
2022-08-19T12:06:14.999Z,41.49
2022-08-19T12:08:43.470Z,41.33
2022-08-19T12:11:11.396Z,41.34
2022-08-19T12:13:40.188Z,41.39
2022-08-19T12:16:13.367Z,41.49
2022-08-19T12:18:43.611Z,41.52
2022-08-19T12:21:12.169Z,41.63
2022-08-19T12:23:40.071Z,41.75
2022-08-19T12:26:07.399Z,41.95
2022-08-19T12:28:34.689Z,42.08
2022-08-19T12:31:01.635Z,42.13
2022-08-19T12:33:29.816Z,42.16
2022-08-19T12:35:56.869Z,42.16
2022-08-19T12:38:25.667Z,42.21
2022-08-19T12:41:00.066Z,42.20
2022-08-19T12:43:28.369Z,42.22
2022-08-19T12:45:55.314Z,42.28
2022-08-19T12:48:33.045Z,42.39
2022-08-19T12:51:02.474Z,42.45
2022-08-19T12:53:29.969Z,42.22
2022-08-19T12:56:01.120Z,42.03
2022-08-19T12:58:29.919Z,41.86
2022-08-19T13:00:56.906Z,41.72
2022-08-19T13:03:30.041Z,41.65
2022-08-19T13:05:57.816Z,41.55
2022-08-19T13:08:24.941Z,41.49
2022-08-19T13:10:52.190Z,41.43
2022-08-19T13:13:20.466Z,41.39
2022-08-19T13:15:48.746Z,41.40
2022-08-19T13:18:15.930Z,41.43
2022-08-19T13:20:43.143Z,41.44
2022-08-19T13:23:21.807Z,41.45
2022-08-19T13:26:00.010Z,41.43
2022-08-19T13:28:29.178Z,41.16
2022-08-19T13:31:15.887Z,40.93
2022-08-19T13:33:45.194Z,40.92
2022-08-19T13:36:12.558Z,40.92
2022-08-19T13:38:40.119Z,40.93
2022-08-19T13:41:11.095Z,40.93
2022-08-19T13:43:39.347Z,40.82
2022-08-19T13:46:11.111Z,40.71
2022-08-19T13:48:38.667Z,40.56
2022-08-19T13:51:06.980Z,40.49
2022-08-19T13:53:34.605Z,40.43
2022-08-19T13:56:01.552Z,40.34
2022-08-19T13:58:28.430Z,40.21
2022-08-19T14:00:56.269Z,40.13
2022-08-19T14:03:25.122Z,40.13
2022-08-19T14:05:53.015Z,40.13
2022-08-19T14:08:20.167Z,40.14
2022-08-19T14:10:47.313Z,40.13
2022-08-19T14:13:16.824Z,40.00
2022-08-19T14:15:43.869Z,39.89
2022-08-19T14:18:10.738Z,39.80
2022-08-19T14:20:37.758Z,39.73
2022-08-19T14:23:06.852Z,39.67
2022-08-19T14:25:34.510Z,39.59
2022-08-19T14:28:01.456Z,39.50
2022-08-19T14:30:33.111Z,39.46
2022-08-19T14:33:01.006Z,39.36
2022-08-19T14:35:29.247Z,39.22
2022-08-19T14:37:57.292Z,39.12
2022-08-19T14:40:27.379Z,39.05
2022-08-19T14:43:00.535Z,39.00
2022-08-19T14:45:28.864Z,38.93
2022-08-19T14:47:56.649Z,38.74
2022-08-19T14:50:24.629Z,38.57
2022-08-19T14:53:00.088Z,38.46
2022-08-19T14:55:28.509Z,38.37
2022-08-19T14:57:55.745Z,38.30
2022-08-19T15:00:29.198Z,38.22
2022-08-19T15:02:56.698Z,38.11
2022-08-19T15:05:24.521Z,38.00
2022-08-19T15:07:52.095Z,37.87
2022-08-19T15:10:19.940Z,37.71
2022-08-19T15:12:51.855Z,37.50
2022-08-19T15:15:21.229Z,37.30
2022-08-19T15:17:48.347Z,37.17
2022-08-19T15:20:18.467Z,37.05
2022-08-19T15:22:45.616Z,36.87
2022-08-19T15:25:14.777Z,36.70
2022-08-19T15:27:41.974Z,36.59
2022-08-19T15:30:09.555Z,36.42
2022-08-19T15:32:37.425Z,36.25
2022-08-19T15:35:06.353Z,36.12
2022-08-19T15:37:34.527Z,36.02
2022-08-19T15:40:07.724Z,35.85
2022-08-19T15:42:36.710Z,35.68
2022-08-19T15:45:06.956Z,35.59
2022-08-19T15:47:35.245Z,35.49
2022-08-19T15:50:11.094Z,35.44
2022-08-19T15:52:59.181Z,35.36
2022-08-19T15:55:33.460Z,35.24
2022-08-19T15:58:28.371Z,35.08
2022-08-19T16:01:20.842Z,34.93
2022-08-19T16:04:14.503Z,34.78
2022-08-19T16:06:54.053Z,34.57
2022-08-19T16:09:27.057Z,34.40
2022-08-19T16:12:03.766Z,34.24
2022-08-19T16:14:32.421Z,34.10
2022-08-19T16:16:59.321Z,33.96
2022-08-19T16:19:26.241Z,33.82
2022-08-19T16:21:54.521Z,33.68
2022-08-19T16:24:22.747Z,33.53
2022-08-19T16:26:49.815Z,33.40
2022-08-19T16:29:27.636Z,33.29
2022-08-19T16:32:10.444Z,33.15
2022-08-19T16:34:38.749Z,33.00
2022-08-19T16:37:05.867Z,32.89
2022-08-19T16:39:32.967Z,32.80
2022-08-19T16:42:01.515Z,32.70
2022-08-19T16:44:29.811Z,32.57
2022-08-19T16:46:59.733Z,32.47
2022-08-19T16:49:54.367Z,32.36
2022-08-19T16:52:19.226Z,32.23
2022-08-19T16:54:46.162Z,32.11
2022-08-19T16:57:13.205Z,32.01
2022-08-19T16:59:42.584Z,31.91
2022-08-19T17:02:17.742Z,31.82
2022-08-19T17:04:48.301Z,31.69
2022-08-19T17:07:24.860Z,31.56
2022-08-19T17:09:52.629Z,31.45
2022-08-19T17:12:20.089Z,31.34
2022-08-19T17:14:47.245Z,31.23
2022-08-19T17:17:15.011Z,31.13
2022-08-19T17:19:44.766Z,31.02
2022-08-19T17:22:13.245Z,30.91
2022-08-19T17:24:40.992Z,30.80
2022-08-19T17:27:07.992Z,30.70
2022-08-19T17:29:35.003Z,30.52
2022-08-19T17:32:02.323Z,30.40
2022-08-19T17:34:29.299Z,30.38
2022-08-19T17:36:59.596Z,30.29
2022-08-19T17:39:26.734Z,30.20
2022-08-19T17:41:53.781Z,30.11
2022-08-19T17:44:22.782Z,29.91
2022-08-19T17:46:49.820Z,29.77
2022-08-19T17:49:17.023Z,29.69
2022-08-19T17:51:45.532Z,29.62
2022-08-19T17:54:15.674Z,29.56
2022-08-19T17:56:43.865Z,29.50
2022-08-19T17:59:14.125Z,29.44
2022-08-19T18:01:53.827Z,29.38
2022-08-19T18:04:22.623Z,29.31
2022-08-19T18:06:53.806Z,29.25
2022-08-19T18:09:30.134Z,29.20
2022-08-19T18:12:09.545Z,29.11
2022-08-19T18:14:37.960Z,29.04
2022-08-19T18:17:11.168Z,28.99
2022-08-19T18:19:40.801Z,28.93
2022-08-19T18:22:08.896Z,28.88
2022-08-19T18:24:41.295Z,28.84
2022-08-19T18:27:08.608Z,28.80
2022-08-19T18:29:37.909Z,28.78
2022-08-19T18:32:05.323Z,28.75
2022-08-19T18:34:32.306Z,28.70
2022-08-19T18:36:59.457Z,28.64
2022-08-19T18:39:45.185Z,28.55
2022-08-19T18:42:50.703Z,28.47
2022-08-19T18:45:36.390Z,28.38
2022-08-19T18:48:27.585Z,28.29
2022-08-19T18:50:59.304Z,28.18
2022-08-19T18:53:30.667Z,28.09
2022-08-19T18:55:57.872Z,28.01
2022-08-19T18:58:26.824Z,27.96
2022-08-19T19:00:57.297Z,27.90
2022-08-19T19:03:26.191Z,27.83
2022-08-19T19:05:53.635Z,27.76
2022-08-19T19:08:20.684Z,27.69
2022-08-19T19:10:55.310Z,27.63
2022-08-19T19:13:22.156Z,27.57
2022-08-19T19:15:49.213Z,27.54
2022-08-19T19:18:16.151Z,27.53
2022-08-19T19:20:43.306Z,27.52
2022-08-19T19:23:10.355Z,27.48
2022-08-19T19:25:50.676Z,27.46
2022-08-19T19:28:24.046Z,27.51
2022-08-19T19:30:53.291Z,27.47
2022-08-19T19:33:20.370Z,27.43
2022-08-19T19:35:47.425Z,27.35
2022-08-19T19:38:14.578Z,27.23
2022-08-19T19:40:41.627Z,27.22
2022-08-19T19:43:08.743Z,27.18
2022-08-19T19:45:35.725Z,27.14
2022-08-19T19:48:02.675Z,27.10
2022-08-19T19:50:30.374Z,27.07
2022-08-19T19:52:57.697Z,27.01
2022-08-19T19:55:27.000Z,26.95
2022-08-19T19:57:54.398Z,26.91
2022-08-19T20:00:21.817Z,26.84
2022-08-19T20:02:50.867Z,26.81
2022-08-19T20:05:21.509Z,26.79
2022-08-19T20:08:08.371Z,26.76
2022-08-19T20:10:35.309Z,26.73
2022-08-19T20:13:03.047Z,26.71
2022-08-19T20:15:31.663Z,26.71
2022-08-19T20:18:04.874Z,26.71
2022-08-19T20:20:32.266Z,26.67
2022-08-19T20:22:59.389Z,26.69
2022-08-19T20:25:26.746Z,26.71
2022-08-19T20:27:53.779Z,26.70
2022-08-19T20:30:22.019Z,26.67
2022-08-19T20:32:50.449Z,26.64
2022-08-19T20:35:18.941Z,26.61
2022-08-19T20:37:47.015Z,26.53
2022-08-19T20:40:14.876Z,26.52
2022-08-19T20:42:43.340Z,26.52
2022-08-19T20:45:32.935Z,26.53
2022-08-19T20:48:02.550Z,26.52
2022-08-19T20:50:30.729Z,26.51
2022-08-19T20:52:58.460Z,26.49
2022-08-19T20:55:26.673Z,26.47
2022-08-19T20:57:53.968Z,26.43
2022-08-19T21:00:21.186Z,26.40
2022-08-19T21:02:48.437Z,26.35
2022-08-19T21:05:15.899Z,26.29
2022-08-19T21:07:43.279Z,26.25
2022-08-19T21:10:10.918Z,26.26
2022-08-19T21:12:38.455Z,26.26
2022-08-19T21:15:06.556Z,26.23
2022-08-19T21:17:33.812Z,26.20
2022-08-19T21:20:01.274Z,26.17
2022-08-19T21:22:28.731Z,26.15
2022-08-19T21:24:55.680Z,26.11
2022-08-19T21:27:22.630Z,26.07
2022-08-19T21:29:49.982Z,26.04
2022-08-19T21:32:16.966Z,26.01
2022-08-19T21:34:46.522Z,25.98
2022-08-19T21:37:25.269Z,25.96
2022-08-19T21:39:54.486Z,25.93
2022-08-19T21:42:22.645Z,25.91
2022-08-19T21:44:49.700Z,25.90
2022-08-19T21:47:16.646Z,25.88
2022-08-19T21:49:43.700Z,25.85
2022-08-19T21:52:10.650Z,25.82
2022-08-19T21:54:38.507Z,25.78
2022-08-19T21:57:10.168Z,25.77
2022-08-19T21:59:43.932Z,25.75
2022-08-19T22:02:21.009Z,25.73
2022-08-19T22:04:49.859Z,25.71
2022-08-19T22:07:16.910Z,25.70
2022-08-19T22:09:44.815Z,25.67
2022-08-19T22:12:23.567Z,25.66
2022-08-19T22:14:52.299Z,25.65
2022-08-19T22:17:19.750Z,25.64
2022-08-19T22:19:46.826Z,25.62
2022-08-19T22:22:13.747Z,25.59
2022-08-19T22:24:41.712Z,25.60
2022-08-19T22:27:08.746Z,25.53
2022-08-19T22:29:37.472Z,25.53
2022-08-19T22:32:28.249Z,25.64
2022-08-19T22:34:52.029Z,25.67
2022-08-19T22:37:19.178Z,25.69
2022-08-19T22:39:46.272Z,25.69
2022-08-19T22:42:14.304Z,25.68
2022-08-19T22:44:41.764Z,25.68
2022-08-19T22:47:10.145Z,25.67
2022-08-19T22:49:37.195Z,25.66
2022-08-19T22:52:20.020Z,25.64
2022-08-19T22:54:57.207Z,25.63
2022-08-19T22:57:24.148Z,25.61
2022-08-19T22:59:52.223Z,25.58
2022-08-19T23:02:23.778Z,25.56
2022-08-19T23:04:51.448Z,25.57
2022-08-19T23:07:19.210Z,25.57
2022-08-19T23:09:50.873Z,25.56
2022-08-19T23:12:33.278Z,25.55
2022-08-19T23:15:17.532Z,25.55
2022-08-19T23:17:46.323Z,25.55
2022-08-19T23:20:14.808Z,25.52
2022-08-19T23:22:46.702Z,25.50
2022-08-19T23:25:16.285Z,25.50
2022-08-19T23:28:02.900Z,25.48
2022-08-19T23:30:31.482Z,25.47
2022-08-19T23:33:07.721Z,25.44
2022-08-19T23:35:38.494Z,25.42
2022-08-19T23:38:07.100Z,25.38
2022-08-19T23:40:35.249Z,25.35
2022-08-19T23:43:03.016Z,25.33
2022-08-19T23:45:37.375Z,25.33
2022-08-19T23:48:05.405Z,25.34
2022-08-19T23:50:32.872Z,25.27
2022-08-19T23:53:00.360Z,25.16
2022-08-19T23:55:33.213Z,25.12
2022-08-19T23:58:01.017Z,25.10
